sensor_id;sensor_type;location;lat;lon;timestamp;P1;durP1;ratioP1;P2;durP2;ratioP2
79308;SDS011;68767;53.078;7.386;2023-11-21T00:00:16;45.25;;;11.35;;
79308;SDS011;68767;53.078;7.386;2023-11-21T00:02:43;26.10;;;9.70;;
79308;SDS011;68767;53.078;7.386;2023-11-21T00:05:13;30.98;;;10.60;;
79308;SDS011;68767;53.078;7.386;2023-11-21T00:07:41;36.53;;;11.70;;
79308;SDS011;68767;53.078;7.386;2023-11-21T00:10:09;36.83;;;10.55;;
79308;SDS011;68767;53.078;7.386;2023-11-21T00:12:37;36.63;;;11.57;;
79308;SDS011;68767;53.078;7.386;2023-11-21T00:15:04;39.92;;;12.27;;
79308;SDS011;68767;53.078;7.386;2023-11-21T00:17:32;30.50;;;11.20;;
79308;SDS011;68767;53.078;7.386;2023-11-21T00:19:59;33.25;;;10.85;;
79308;SDS011;68767;53.078;7.386;2023-11-21T00:22:26;39.30;;;11.63;;
79308;SDS011;68767;53.078;7.386;2023-11-21T00:24:53;30.90;;;11.48;;
79308;SDS011;68767;53.078;7.386;2023-11-21T00:27:20;38.45;;;12.30;;
79308;SDS011;68767;53.078;7.386;2023-11-21T00:29:47;39.50;;;12.82;;
79308;SDS011;68767;53.078;7.386;2023-11-21T00:32:14;36.92;;;11.70;;
79308;SDS011;68767;53.078;7.386;2023-11-21T00:34:40;36.55;;;11.60;;
79308;SDS011;68767;53.078;7.386;2023-11-21T00:37:09;37.78;;;11.73;;
79308;SDS011;68767;53.078;7.386;2023-11-21T00:39:36;41.95;;;12.95;;
79308;SDS011;68767;53.078;7.386;2023-11-21T00:42:03;36.70;;;12.35;;
79308;SDS011;68767;53.078;7.386;2023-11-21T00:44:31;35.00;;;11.80;;
79308;SDS011;68767;53.078;7.386;2023-11-21T00:46:58;30.02;;;11.25;;
79308;SDS011;68767;53.078;7.386;2023-11-21T00:49:25;36.15;;;11.00;;
79308;SDS011;68767;53.078;7.386;2023-11-21T00:51:52;40.33;;;13.52;;
79308;SDS011;68767;53.078;7.386;2023-11-21T00:54:19;36.08;;;11.77;;
79308;SDS011;68767;53.078;7.386;2023-11-21T00:56:46;31.35;;;11.68;;
79308;SDS011;68767;53.078;7.386;2023-11-21T00:59:16;33.63;;;11.07;;
79308;SDS011;68767;53.078;7.386;2023-11-21T01:01:43;34.80;;;12.43;;
79308;SDS011;68767;53.078;7.386;2023-11-21T01:04:10;37.00;;;12.23;;
79308;SDS011;68767;53.078;7.386;2023-11-21T01:06:37;35.92;;;12.45;;
79308;SDS011;68767;53.078;7.386;2023-11-21T01:09:05;40.08;;;12.85;;
79308;SDS011;68767;53.078;7.386;2023-11-21T01:11:35;34.50;;;12.70;;
79308;SDS011;68767;53.078;7.386;2023-11-21T01:14:04;37.42;;;12.48;;
79308;SDS011;68767;53.078;7.386;2023-11-21T01:16:31;38.17;;;13.38;;
79308;SDS011;68767;53.078;7.386;2023-11-21T01:19:02;33.40;;;12.20;;
79308;SDS011;68767;53.078;7.386;2023-11-21T01:21:31;35.45;;;12.32;;
79308;SDS011;68767;53.078;7.386;2023-11-21T01:23:58;36.47;;;12.10;;
79308;SDS011;68767;53.078;7.386;2023-11-21T01:26:25;43.38;;;13.55;;
79308;SDS011;68767;53.078;7.386;2023-11-21T01:28:52;43.78;;;14.27;;
79308;SDS011;68767;53.078;7.386;2023-11-21T01:31:19;35.83;;;12.57;;
79308;SDS011;68767;53.078;7.386;2023-11-21T01:33:47;46.80;;;13.52;;
79308;SDS011;68767;53.078;7.386;2023-11-21T01:36:15;42.75;;;13.73;;
79308;SDS011;68767;53.078;7.386;2023-11-21T01:38:44;36.33;;;13.43;;
79308;SDS011;68767;53.078;7.386;2023-11-21T01:41:12;41.10;;;14.07;;
79308;SDS011;68767;53.078;7.386;2023-11-21T01:43:40;34.70;;;12.70;;
79308;SDS011;68767;53.078;7.386;2023-11-21T01:46:08;31.92;;;12.75;;
79308;SDS011;68767;53.078;7.386;2023-11-21T01:48:35;35.55;;;13.55;;
79308;SDS011;68767;53.078;7.386;2023-11-21T01:51:03;38.05;;;13.68;;
79308;SDS011;68767;53.078;7.386;2023-11-21T01:53:30;41.78;;;12.48;;
79308;SDS011;68767;53.078;7.386;2023-11-21T01:55:57;40.13;;;13.32;;
79308;SDS011;68767;53.078;7.386;2023-11-21T01:58:25;36.83;;;14.55;;
79308;SDS011;68767;53.078;7.386;2023-11-21T02:00:53;39.50;;;13.77;;
79308;SDS011;68767;53.078;7.386;2023-11-21T02:03:21;43.63;;;15.13;;
79308;SDS011;68767;53.078;7.386;2023-11-21T02:05:48;36.13;;;13.00;;
79308;SDS011;68767;53.078;7.386;2023-11-21T02:08:15;42.78;;;13.45;;
79308;SDS011;68767;53.078;7.386;2023-11-21T02:10:45;35.75;;;13.23;;
79308;SDS011;68767;53.078;7.386;2023-11-21T02:13:14;39.88;;;13.88;;
79308;SDS011;68767;53.078;7.386;2023-11-21T02:15:43;41.30;;;13.70;;
79308;SDS011;68767;53.078;7.386;2023-11-21T02:18:10;38.42;;;14.25;;
79308;SDS011;68767;53.078;7.386;2023-11-21T02:20:38;33.05;;;13.60;;
79308;SDS011;68767;53.078;7.386;2023-11-21T02:23:08;37.58;;;13.95;;
79308;SDS011;68767;53.078;7.386;2023-11-21T02:25:35;45.55;;;14.88;;
79308;SDS011;68767;53.078;7.386;2023-11-21T02:28:04;34.33;;;13.35;;
79308;SDS011;68767;53.078;7.386;2023-11-21T02:30:31;36.35;;;14.77;;
79308;SDS011;68767;53.078;7.386;2023-11-21T02:32:59;39.05;;;13.82;;
79308;SDS011;68767;53.078;7.386;2023-11-21T02:35:28;37.80;;;12.40;;
79308;SDS011;68767;53.078;7.386;2023-11-21T02:37:58;48.83;;;15.52;;
79308;SDS011;68767;53.078;7.386;2023-11-21T02:40:26;44.78;;;14.52;;
79308;SDS011;68767;53.078;7.386;2023-11-21T02:42:53;34.45;;;13.38;;
79308;SDS011;68767;53.078;7.386;2023-11-21T02:45:21;40.75;;;14.70;;
79308;SDS011;68767;53.078;7.386;2023-11-21T02:47:49;45.88;;;13.90;;
79308;SDS011;68767;53.078;7.386;2023-11-21T02:50:17;42.00;;;13.00;;
79308;SDS011;68767;53.078;7.386;2023-11-21T02:52:45;41.22;;;14.68;;
79308;SDS011;68767;53.078;7.386;2023-11-21T02:55:13;36.15;;;13.32;;
79308;SDS011;68767;53.078;7.386;2023-11-21T02:57:40;35.97;;;12.75;;
79308;SDS011;68767;53.078;7.386;2023-11-21T03:00:07;37.10;;;13.75;;
79308;SDS011;68767;53.078;7.386;2023-11-21T03:02:36;36.10;;;13.38;;
79308;SDS011;68767;53.078;7.386;2023-11-21T03:07:35;34.58;;;13.57;;
79308;SDS011;68767;53.078;7.386;2023-11-21T03:10:04;35.10;;;12.48;;
79308;SDS011;68767;53.078;7.386;2023-11-21T03:12:31;36.08;;;13.07;;
79308;SDS011;68767;53.078;7.386;2023-11-21T03:14:58;37.45;;;15.23;;
79308;SDS011;68767;53.078;7.386;2023-11-21T03:17:25;38.95;;;13.43;;
79308;SDS011;68767;53.078;7.386;2023-11-21T03:19:52;37.90;;;13.52;;
79308;SDS011;68767;53.078;7.386;2023-11-21T03:22:19;35.40;;;13.75;;
79308;SDS011;68767;53.078;7.386;2023-11-21T03:24:46;38.10;;;14.43;;
79308;SDS011;68767;53.078;7.386;2023-11-21T03:27:13;35.05;;;14.32;;
79308;SDS011;68767;53.078;7.386;2023-11-21T03:29:40;28.90;;;13.07;;
79308;SDS011;68767;53.078;7.386;2023-11-21T03:32:08;39.38;;;13.88;;
79308;SDS011;68767;53.078;7.386;2023-11-21T03:34:35;43.53;;;14.68;;
79308;SDS011;68767;53.078;7.386;2023-11-21T03:37:02;43.83;;;14.90;;
79308;SDS011;68767;53.078;7.386;2023-11-21T03:39:29;38.38;;;14.68;;
79308;SDS011;68767;53.078;7.386;2023-11-21T03:41:56;35.40;;;14.48;;
79308;SDS011;68767;53.078;7.386;2023-11-21T03:44:23;44.92;;;14.30;;
79308;SDS011;68767;53.078;7.386;2023-11-21T03:46:52;38.53;;;14.82;;
79308;SDS011;68767;53.078;7.386;2023-11-21T03:49:19;42.05;;;14.85;;
79308;SDS011;68767;53.078;7.386;2023-11-21T03:51:46;42.83;;;15.65;;
79308;SDS011;68767;53.078;7.386;2023-11-21T03:54:13;45.22;;;15.32;;
79308;SDS011;68767;53.078;7.386;2023-11-21T03:56:40;43.55;;;14.52;;
79308;SDS011;68767;53.078;7.386;2023-11-21T03:59:07;39.90;;;15.52;;
79308;SDS011;68767;53.078;7.386;2023-11-21T04:01:34;36.95;;;14.90;;
79308;SDS011;68767;53.078;7.386;2023-11-21T04:04:01;52.75;;;15.60;;
79308;SDS011;68767;53.078;7.386;2023-11-21T04:06:29;44.72;;;16.25;;
79308;SDS011;68767;53.078;7.386;2023-11-21T04:08:56;42.95;;;15.88;;
79308;SDS011;68767;53.078;7.386;2023-11-21T04:11:23;37.05;;;15.80;;
79308;SDS011;68767;53.078;7.386;2023-11-21T04:13:49;38.40;;;15.95;;
79308;SDS011;68767;53.078;7.386;2023-11-21T04:16:16;52.03;;;17.65;;
79308;SDS011;68767;53.078;7.386;2023-11-21T04:18:45;37.45;;;15.15;;
79308;SDS011;68767;53.078;7.386;2023-11-21T04:21:12;42.95;;;16.40;;
79308;SDS011;68767;53.078;7.386;2023-11-21T04:23:39;46.75;;;16.08;;
79308;SDS011;68767;53.078;7.386;2023-11-21T04:26:06;41.30;;;15.60;;
79308;SDS011;68767;53.078;7.386;2023-11-21T04:28:33;46.70;;;16.50;;
79308;SDS011;68767;53.078;7.386;2023-11-21T04:31:01;56.78;;;17.40;;
79308;SDS011;68767;53.078;7.386;2023-11-21T04:33:28;40.47;;;15.73;;
79308;SDS011;68767;53.078;7.386;2023-11-21T04:35:56;49.60;;;16.13;;
79308;SDS011;68767;53.078;7.386;2023-11-21T04:38:23;41.88;;;15.77;;
79308;SDS011;68767;53.078;7.386;2023-11-21T04:40:50;46.78;;;16.63;;
79308;SDS011;68767;53.078;7.386;2023-11-21T04:43:17;44.13;;;16.90;;
79308;SDS011;68767;53.078;7.386;2023-11-21T04:45:44;40.10;;;15.15;;
79308;SDS011;68767;53.078;7.386;2023-11-21T04:48:11;49.38;;;15.27;;
79308;SDS011;68767;53.078;7.386;2023-11-21T04:50:38;44.90;;;16.55;;
79308;SDS011;68767;53.078;7.386;2023-11-21T04:53:05;49.50;;;16.98;;
79308;SDS011;68767;53.078;7.386;2023-11-21T04:55:32;41.50;;;16.40;;
79308;SDS011;68767;53.078;7.386;2023-11-21T04:57:59;52.97;;;16.05;;
79308;SDS011;68767;53.078;7.386;2023-11-21T05:00:26;50.80;;;16.65;;
79308;SDS011;68767;53.078;7.386;2023-11-21T05:02:53;54.15;;;16.05;;
79308;SDS011;68767;53.078;7.386;2023-11-21T05:05:20;50.30;;;16.15;;
79308;SDS011;68767;53.078;7.386;2023-11-21T05:07:47;51.10;;;15.90;;
79308;SDS011;68767;53.078;7.386;2023-11-21T05:10:15;46.42;;;15.40;;
79308;SDS011;68767;53.078;7.386;2023-11-21T05:12:42;43.75;;;13.60;;
79308;SDS011;68767;53.078;7.386;2023-11-21T05:15:10;45.42;;;14.57;;
79308;SDS011;68767;53.078;7.386;2023-11-21T05:17:41;52.67;;;16.52;;
79308;SDS011;68767;53.078;7.386;2023-11-21T05:20:10;48.90;;;15.93;;
79308;SDS011;68767;53.078;7.386;2023-11-21T05:22:40;41.25;;;14.32;;
79308;SDS011;68767;53.078;7.386;2023-11-21T05:25:09;41.42;;;13.68;;
79308;SDS011;68767;53.078;7.386;2023-11-21T05:27:38;44.90;;;14.85;;
79308;SDS011;68767;53.078;7.386;2023-11-21T05:30:05;43.55;;;13.52;;
79308;SDS011;68767;53.078;7.386;2023-11-21T05:32:33;42.70;;;13.65;;
79308;SDS011;68767;53.078;7.386;2023-11-21T05:35:01;40.60;;;13.00;;
79308;SDS011;68767;53.078;7.386;2023-11-21T05:37:28;39.35;;;12.95;;
79308;SDS011;68767;53.078;7.386;2023-11-21T05:39:55;39.53;;;13.07;;
79308;SDS011;68767;53.078;7.386;2023-11-21T05:42:26;33.88;;;13.02;;
79308;SDS011;68767;53.078;7.386;2023-11-21T05:44:53;44.08;;;12.95;;
79308;SDS011;68767;53.078;7.386;2023-11-21T05:47:21;38.13;;;12.55;;
79308;SDS011;68767;53.078;7.386;2023-11-21T05:49:48;39.60;;;12.02;;
79308;SDS011;68767;53.078;7.386;2023-11-21T05:52:18;37.42;;;12.63;;
79308;SDS011;68767;53.078;7.386;2023-11-21T05:54:45;42.08;;;13.77;;
79308;SDS011;68767;53.078;7.386;2023-11-21T05:57:12;45.22;;;13.80;;
79308;SDS011;68767;53.078;7.386;2023-11-21T05:59:39;49.20;;;13.85;;
79308;SDS011;68767;53.078;7.386;2023-11-21T06:02:06;43.80;;;13.00;;
79308;SDS011;68767;53.078;7.386;2023-11-21T06:04:34;39.90;;;13.10;;
79308;SDS011;68767;53.078;7.386;2023-11-21T06:07:01;45.42;;;12.25;;
79308;SDS011;68767;53.078;7.386;2023-11-21T06:09:28;42.80;;;10.82;;
79308;SDS011;68767;53.078;7.386;2023-11-21T06:11:55;37.67;;;10.35;;
79308;SDS011;68767;53.078;7.386;2023-11-21T06:14:22;37.03;;;11.45;;
79308;SDS011;68767;53.078;7.386;2023-11-21T06:16:49;35.05;;;10.93;;
79308;SDS011;68767;53.078;7.386;2023-11-21T06:19:17;38.25;;;11.80;;
79308;SDS011;68767;53.078;7.386;2023-11-21T06:21:45;42.00;;;12.43;;
79308;SDS011;68767;53.078;7.386;2023-11-21T06:24:13;54.10;;;13.20;;
79308;SDS011;68767;53.078;7.386;2023-11-21T06:26:41;51.90;;;12.57;;
79308;SDS011;68767;53.078;7.386;2023-11-21T06:29:09;50.75;;;13.25;;
79308;SDS011;68767;53.078;7.386;2023-11-21T06:31:36;47.85;;;12.70;;
79308;SDS011;68767;53.078;7.386;2023-11-21T06:34:03;48.70;;;12.18;;
79308;SDS011;68767;53.078;7.386;2023-11-21T06:36:30;45.03;;;12.70;;
79308;SDS011;68767;53.078;7.386;2023-11-21T06:38:58;53.20;;;14.68;;
79308;SDS011;68767;53.078;7.386;2023-11-21T06:41:24;46.50;;;13.15;;
79308;SDS011;68767;53.078;7.386;2023-11-21T06:43:52;53.13;;;14.20;;
79308;SDS011;68767;53.078;7.386;2023-11-21T06:46:19;48.95;;;14.38;;
79308;SDS011;68767;53.078;7.386;2023-11-21T06:48:47;42.45;;;14.07;;
79308;SDS011;68767;53.078;7.386;2023-11-21T06:51:15;40.33;;;12.68;;
79308;SDS011;68767;53.078;7.386;2023-11-21T06:53:42;48.78;;;14.27;;
79308;SDS011;68767;53.078;7.386;2023-11-21T06:56:15;46.83;;;14.60;;
79308;SDS011;68767;53.078;7.386;2023-11-21T06:58:45;49.63;;;15.00;;
79308;SDS011;68767;53.078;7.386;2023-11-21T07:01:13;40.70;;;13.93;;
79308;SDS011;68767;53.078;7.386;2023-11-21T07:03:40;52.33;;;15.18;;
79308;SDS011;68767;53.078;7.386;2023-11-21T07:06:09;52.00;;;15.00;;
79308;SDS011;68767;53.078;7.386;2023-11-21T07:08:36;56.63;;;16.25;;
79308;SDS011;68767;53.078;7.386;2023-11-21T07:11:04;51.42;;;15.43;;
79308;SDS011;68767;53.078;7.386;2023-11-21T07:13:31;47.70;;;14.77;;
79308;SDS011;68767;53.078;7.386;2023-11-21T07:15:58;41.72;;;15.63;;
79308;SDS011;68767;53.078;7.386;2023-11-21T07:18:26;48.33;;;15.55;;
79308;SDS011;68767;53.078;7.386;2023-11-21T07:20:53;46.10;;;16.15;;
79308;SDS011;68767;53.078;7.386;2023-11-21T07:23:20;46.50;;;15.43;;
79308;SDS011;68767;53.078;7.386;2023-11-21T07:25:49;54.85;;;17.92;;
79308;SDS011;68767;53.078;7.386;2023-11-21T07:28:16;50.20;;;15.90;;
79308;SDS011;68767;53.078;7.386;2023-11-21T07:30:43;46.45;;;17.70;;
79308;SDS011;68767;53.078;7.386;2023-11-21T07:33:10;50.47;;;17.08;;
79308;SDS011;68767;53.078;7.386;2023-11-21T07:35:37;48.33;;;16.13;;
79308;SDS011;68767;53.078;7.386;2023-11-21T07:38:04;50.20;;;18.77;;
79308;SDS011;68767;53.078;7.386;2023-11-21T07:40:31;53.25;;;18.48;;
79308;SDS011;68767;53.078;7.386;2023-11-21T07:42:58;54.03;;;17.83;;
79308;SDS011;68767;53.078;7.386;2023-11-21T07:45:27;52.70;;;17.38;;
79308;SDS011;68767;53.078;7.386;2023-11-21T07:47:54;51.25;;;18.17;;
79308;SDS011;68767;53.078;7.386;2023-11-21T07:50:22;50.67;;;18.55;;
79308;SDS011;68767;53.078;7.386;2023-11-21T07:52:49;55.72;;;18.60;;
79308;SDS011;68767;53.078;7.386;2023-11-21T07:55:16;51.28;;;18.50;;
79308;SDS011;68767;53.078;7.386;2023-11-21T07:57:43;52.97;;;18.73;;
79308;SDS011;68767;53.078;7.386;2023-11-21T08:00:11;49.15;;;18.58;;
79308;SDS011;68767;53.078;7.386;2023-11-21T08:02:39;48.00;;;18.88;;
79308;SDS011;68767;53.078;7.386;2023-11-21T08:05:09;51.88;;;18.27;;
79308;SDS011;68767;53.078;7.386;2023-11-21T08:07:50;50.90;;;16.40;;
79308;SDS011;68767;53.078;7.386;2023-11-21T08:10:17;41.97;;;14.25;;
79308;SDS011;68767;53.078;7.386;2023-11-21T08:12:44;45.08;;;16.63;;
79308;SDS011;68767;53.078;7.386;2023-11-21T08:15:11;46.85;;;15.57;;
79308;SDS011;68767;53.078;7.386;2023-11-21T08:17:38;41.67;;;14.65;;
79308;SDS011;68767;53.078;7.386;2023-11-21T08:20:05;40.92;;;14.60;;
79308;SDS011;68767;53.078;7.386;2023-11-21T08:22:35;44.47;;;13.65;;
79308;SDS011;68767;53.078;7.386;2023-11-21T08:25:02;36.35;;;13.65;;
79308;SDS011;68767;53.078;7.386;2023-11-21T08:27:32;39.47;;;13.45;;
79308;SDS011;68767;53.078;7.386;2023-11-21T08:29:59;35.88;;;13.15;;
79308;SDS011;68767;53.078;7.386;2023-11-21T08:32:26;39.85;;;13.57;;
79308;SDS011;68767;53.078;7.386;2023-11-21T08:34:53;29.77;;;11.65;;
79308;SDS011;68767;53.078;7.386;2023-11-21T08:37:21;30.63;;;11.80;;
79308;SDS011;68767;53.078;7.386;2023-11-21T08:39:48;27.25;;;11.60;;
79308;SDS011;68767;53.078;7.386;2023-11-21T08:42:15;29.27;;;11.50;;
79308;SDS011;68767;53.078;7.386;2023-11-21T08:44:42;26.92;;;10.93;;
79308;SDS011;68767;53.078;7.386;2023-11-21T08:47:09;25.45;;;10.13;;
79308;SDS011;68767;53.078;7.386;2023-11-21T08:49:36;25.63;;;10.20;;
79308;SDS011;68767;53.078;7.386;2023-11-21T08:52:03;26.50;;;10.48;;
79308;SDS011;68767;53.078;7.386;2023-11-21T08:54:31;26.35;;;10.32;;
79308;SDS011;68767;53.078;7.386;2023-11-21T08:56:58;24.00;;;10.77;;
79308;SDS011;68767;53.078;7.386;2023-11-21T08:59:25;21.42;;;9.93;;
79308;SDS011;68767;53.078;7.386;2023-11-21T09:01:53;20.55;;;9.27;;
79308;SDS011;68767;53.078;7.386;2023-11-21T09:04:20;21.45;;;9.30;;
79308;SDS011;68767;53.078;7.386;2023-11-21T09:06:47;20.92;;;8.95;;
79308;SDS011;68767;53.078;7.386;2023-11-21T09:09:14;19.35;;;9.10;;
79308;SDS011;68767;53.078;7.386;2023-11-21T09:11:41;17.13;;;8.60;;
79308;SDS011;68767;53.078;7.386;2023-11-21T09:14:08;18.02;;;8.77;;
79308;SDS011;68767;53.078;7.386;2023-11-21T09:16:36;17.42;;;8.15;;
79308;SDS011;68767;53.078;7.386;2023-11-21T09:19:03;22.45;;;9.55;;
79308;SDS011;68767;53.078;7.386;2023-11-21T09:21:32;20.13;;;8.35;;
79308;SDS011;68767;53.078;7.386;2023-11-21T09:23:59;19.98;;;7.60;;
79308;SDS011;68767;53.078;7.386;2023-11-21T09:26:26;18.85;;;9.23;;
79308;SDS011;68767;53.078;7.386;2023-11-21T09:28:53;19.15;;;8.38;;
79308;SDS011;68767;53.078;7.386;2023-11-21T09:31:22;16.42;;;7.97;;
79308;SDS011;68767;53.078;7.386;2023-11-21T09:33:50;20.35;;;7.15;;
79308;SDS011;68767;53.078;7.386;2023-11-21T09:36:17;19.27;;;7.82;;
79308;SDS011;68767;53.078;7.386;2023-11-21T09:38:44;15.32;;;7.85;;
79308;SDS011;68767;53.078;7.386;2023-11-21T09:41:15;19.05;;;8.63;;
79308;SDS011;68767;53.078;7.386;2023-11-21T09:43:52;15.38;;;7.80;;
79308;SDS011;68767;53.078;7.386;2023-11-21T09:46:23;21.80;;;7.93;;
79308;SDS011;68767;53.078;7.386;2023-11-21T09:48:52;17.42;;;7.57;;
79308;SDS011;68767;53.078;7.386;2023-11-21T09:51:19;15.02;;;6.55;;
79308;SDS011;68767;53.078;7.386;2023-11-21T09:53:50;14.85;;;7.65;;
79308;SDS011;68767;53.078;7.386;2023-11-21T09:56:18;15.57;;;7.15;;
79308;SDS011;68767;53.078;7.386;2023-11-21T09:58:51;19.20;;;7.20;;
79308;SDS011;68767;53.078;7.386;2023-11-21T10:01:20;14.32;;;7.60;;
79308;SDS011;68767;53.078;7.386;2023-11-21T10:03:49;18.75;;;7.50;;
79308;SDS011;68767;53.078;7.386;2023-11-21T10:06:16;17.15;;;7.55;;
79308;SDS011;68767;53.078;7.386;2023-11-21T10:08:44;17.73;;;7.07;;
79308;SDS011;68767;53.078;7.386;2023-11-21T10:11:21;18.20;;;7.43;;
79308;SDS011;68767;53.078;7.386;2023-11-21T10:13:55;15.63;;;7.65;;
79308;SDS011;68767;53.078;7.386;2023-11-21T10:16:25;15.75;;;6.88;;
79308;SDS011;68767;53.078;7.386;2023-11-21T10:18:53;14.55;;;6.40;;
79308;SDS011;68767;53.078;7.386;2023-11-21T10:21:39;22.75;;;8.32;;
79308;SDS011;68767;53.078;7.386;2023-11-21T10:26:34;17.80;;;8.23;;
79308;SDS011;68767;53.078;7.386;2023-11-21T10:29:16;18.05;;;7.55;;
79308;SDS011;68767;53.078;7.386;2023-11-21T10:31:45;14.88;;;6.65;;
79308;SDS011;68767;53.078;7.386;2023-11-21T10:34:15;19.65;;;8.73;;
79308;SDS011;68767;53.078;7.386;2023-11-21T10:36:46;18.55;;;7.70;;
79308;SDS011;68767;53.078;7.386;2023-11-21T10:39:14;18.15;;;7.60;;
79308;SDS011;68767;53.078;7.386;2023-11-21T10:41:47;14.32;;;7.43;;
79308;SDS011;68767;53.078;7.386;2023-11-21T10:44:15;13.93;;;6.80;;
79308;SDS011;68767;53.078;7.386;2023-11-21T10:46:51;17.52;;;6.97;;
79308;SDS011;68767;53.078;7.386;2023-11-21T10:49:24;15.00;;;7.10;;
79308;SDS011;68767;53.078;7.386;2023-11-21T10:51:55;16.83;;;6.97;;
79308;SDS011;68767;53.078;7.386;2023-11-21T10:54:23;18.95;;;7.15;;
79308;SDS011;68767;53.078;7.386;2023-11-21T10:56:56;17.15;;;6.78;;
79308;SDS011;68767;53.078;7.386;2023-11-21T10:59:29;14.48;;;6.85;;
79308;SDS011;68767;53.078;7.386;2023-11-21T11:01:59;15.90;;;6.75;;
79308;SDS011;68767;53.078;7.386;2023-11-21T11:04:30;15.20;;;6.88;;
79308;SDS011;68767;53.078;7.386;2023-11-21T11:06:59;20.38;;;7.55;;
79308;SDS011;68767;53.078;7.386;2023-11-21T11:09:31;16.10;;;7.13;;
79308;SDS011;68767;53.078;7.386;2023-11-21T11:12:02;14.90;;;7.03;;
79308;SDS011;68767;53.078;7.386;2023-11-21T11:14:32;17.33;;;7.00;;
79308;SDS011;68767;53.078;7.386;2023-11-21T11:16:59;13.30;;;6.43;;
79308;SDS011;68767;53.078;7.386;2023-11-21T11:19:29;16.00;;;7.32;;
79308;SDS011;68767;53.078;7.386;2023-11-21T11:33:41;12.40;;;6.53;;
79308;SDS011;68767;53.078;7.386;2023-11-21T11:36:21;16.65;;;6.45;;
79308;SDS011;68767;53.078;7.386;2023-11-21T11:38:52;14.30;;;6.50;;
79308;SDS011;68767;53.078;7.386;2023-11-21T11:41:26;15.73;;;6.47;;
79308;SDS011;68767;53.078;7.386;2023-11-21T11:44:01;16.88;;;7.07;;
79308;SDS011;68767;53.078;7.386;2023-11-21T11:46:40;18.25;;;7.07;;
79308;SDS011;68767;53.078;7.386;2023-11-21T11:49:08;14.18;;;7.20;;
79308;SDS011;68767;53.078;7.386;2023-11-21T11:51:35;14.63;;;6.55;;
79308;SDS011;68767;53.078;7.386;2023-11-21T11:54:05;14.00;;;6.75;;
79308;SDS011;68767;53.078;7.386;2023-11-21T11:56:33;14.50;;;6.10;;
79308;SDS011;68767;53.078;7.386;2023-11-21T11:59:03;12.55;;;6.38;;
79308;SDS011;68767;53.078;7.386;2023-11-21T12:01:31;11.65;;;6.18;;
79308;SDS011;68767;53.078;7.386;2023-11-21T12:06:59;14.20;;;7.18;;
79308;SDS011;68767;53.078;7.386;2023-11-21T12:09:29;13.50;;;7.13;;
79308;SDS011;68767;53.078;7.386;2023-11-21T12:11:58;15.55;;;6.53;;
79308;SDS011;68767;53.078;7.386;2023-11-21T12:14:25;15.48;;;6.65;;
79308;SDS011;68767;53.078;7.386;2023-11-21T12:16:52;17.60;;;7.43;;
79308;SDS011;68767;53.078;7.386;2023-11-21T12:19:20;13.65;;;6.43;;
79308;SDS011;68767;53.078;7.386;2023-11-21T12:21:47;16.05;;;7.55;;
79308;SDS011;68767;53.078;7.386;2023-11-21T12:24:15;14.30;;;7.03;;
79308;SDS011;68767;53.078;7.386;2023-11-21T12:26:43;10.18;;;5.63;;
79308;SDS011;68767;53.078;7.386;2023-11-21T12:29:10;15.05;;;6.18;;
79308;SDS011;68767;53.078;7.386;2023-11-21T12:31:38;19.20;;;7.13;;
79308;SDS011;68767;53.078;7.386;2023-11-21T12:34:06;13.93;;;6.75;;
79308;SDS011;68767;53.078;7.386;2023-11-21T12:36:34;16.40;;;6.90;;
79308;SDS011;68767;53.078;7.386;2023-11-21T12:39:01;16.88;;;6.60;;
79308;SDS011;68767;53.078;7.386;2023-11-21T12:41:29;14.48;;;6.78;;
79308;SDS011;68767;53.078;7.386;2023-11-21T12:43:57;15.23;;;6.80;;
79308;SDS011;68767;53.078;7.386;2023-11-21T12:46:24;15.15;;;6.10;;
79308;SDS011;68767;53.078;7.386;2023-11-21T12:48:56;18.45;;;7.18;;
79308;SDS011;68767;53.078;7.386;2023-11-21T12:51:24;20.17;;;6.72;;
79308;SDS011;68767;53.078;7.386;2023-11-21T12:53:51;13.98;;;6.28;;
79308;SDS011;68767;53.078;7.386;2023-11-21T12:56:21;16.33;;;6.05;;
79308;SDS011;68767;53.078;7.386;2023-11-21T12:58:50;13.52;;;6.47;;
79308;SDS011;68767;53.078;7.386;2023-11-21T13:01:20;11.65;;;6.03;;
79308;SDS011;68767;53.078;7.386;2023-11-21T13:03:53;14.43;;;6.95;;
79308;SDS011;68767;53.078;7.386;2023-11-21T13:06:20;10.13;;;5.45;;
79308;SDS011;68767;53.078;7.386;2023-11-21T13:08:51;12.63;;;5.97;;
79308;SDS011;68767;53.078;7.386;2023-11-21T13:11:18;11.48;;;6.20;;
79308;SDS011;68767;53.078;7.386;2023-11-21T13:13:45;15.80;;;6.65;;
79308;SDS011;68767;53.078;7.386;2023-11-21T13:16:12;15.45;;;6.07;;
79308;SDS011;68767;53.078;7.386;2023-11-21T13:18:39;9.90;;;5.38;;
79308;SDS011;68767;53.078;7.386;2023-11-21T13:21:08;11.93;;;5.65;;
79308;SDS011;68767;53.078;7.386;2023-11-21T13:23:43;11.57;;;5.60;;
79308;SDS011;68767;53.078;7.386;2023-11-21T13:26:13;19.27;;;6.13;;
79308;SDS011;68767;53.078;7.386;2023-11-21T13:28:42;14.55;;;6.65;;
79308;SDS011;68767;53.078;7.386;2023-11-21T13:31:13;13.10;;;6.25;;
79308;SDS011;68767;53.078;7.386;2023-11-21T13:33:59;13.88;;;6.10;;
79308;SDS011;68767;53.078;7.386;2023-11-21T13:36:32;14.80;;;6.20;;
79308;SDS011;68767;53.078;7.386;2023-11-21T13:39:02;12.68;;;6.25;;
79308;SDS011;68767;53.078;7.386;2023-11-21T13:41:36;12.15;;;6.07;;
79308;SDS011;68767;53.078;7.386;2023-11-21T13:44:05;12.77;;;5.35;;
79308;SDS011;68767;53.078;7.386;2023-11-21T13:46:44;9.88;;;5.68;;
79308;SDS011;68767;53.078;7.386;2023-11-21T13:49:13;9.75;;;5.28;;
79308;SDS011;68767;53.078;7.386;2023-11-21T13:51:41;9.65;;;5.45;;
79308;SDS011;68767;53.078;7.386;2023-11-21T13:54:11;16.50;;;6.38;;
79308;SDS011;68767;53.078;7.386;2023-11-21T13:56:38;11.32;;;5.75;;
79308;SDS011;68767;53.078;7.386;2023-11-21T13:59:07;12.75;;;6.35;;
79308;SDS011;68767;53.078;7.386;2023-11-21T14:01:50;14.40;;;5.10;;
79308;SDS011;68767;53.078;7.386;2023-11-21T14:04:20;10.93;;;5.95;;
79308;SDS011;68767;53.078;7.386;2023-11-21T14:07:02;11.93;;;5.38;;
79308;SDS011;68767;53.078;7.386;2023-11-21T14:09:47;11.65;;;5.68;;
79308;SDS011;68767;53.078;7.386;2023-11-21T14:12:15;12.48;;;5.55;;
79308;SDS011;68767;53.078;7.386;2023-11-21T14:14:42;17.88;;;5.65;;
79308;SDS011;68767;53.078;7.386;2023-11-21T14:17:11;12.32;;;4.95;;
79308;SDS011;68767;53.078;7.386;2023-11-21T14:19:38;14.35;;;5.50;;
79308;SDS011;68767;53.078;7.386;2023-11-21T14:22:10;13.40;;;5.88;;
79308;SDS011;68767;53.078;7.386;2023-11-21T14:24:37;12.20;;;5.85;;
79308;SDS011;68767;53.078;7.386;2023-11-21T14:27:10;16.27;;;6.72;;
79308;SDS011;68767;53.078;7.386;2023-11-21T14:29:37;13.77;;;5.18;;
79308;SDS011;68767;53.078;7.386;2023-11-21T14:32:06;11.93;;;5.82;;
79308;SDS011;68767;53.078;7.386;2023-11-21T14:34:34;29.08;;;10.25;;
79308;SDS011;68767;53.078;7.386;2023-11-21T14:37:01;14.50;;;6.00;;
79308;SDS011;68767;53.078;7.386;2023-11-21T14:39:29;12.13;;;6.45;;
79308;SDS011;68767;53.078;7.386;2023-11-21T14:41:56;17.52;;;6.80;;
79308;SDS011;68767;53.078;7.386;2023-11-21T14:44:25;15.55;;;6.18;;
79308;SDS011;68767;53.078;7.386;2023-11-21T14:46:55;11.95;;;5.75;;
79308;SDS011;68767;53.078;7.386;2023-11-21T14:49:24;12.50;;;5.50;;
79308;SDS011;68767;53.078;7.386;2023-11-21T14:54:30;9.93;;;5.32;;